Greenwater, Washington
Current Conditions -  °F | °C
As of 9:53 PM on Wednesday 22 Oct 2014 (Local Time) from KRNT Reporting Station
Broken Clouds Broken Clouds  
Wind Chill: 58°   Ceiling: 11000
Heat Index: 58°   Visibility: 10mi
Dew Point: 53°   Wind: 8mph
Humidity: 84%   Direction: 150°SSE
Pressure: 29.63"   Gusts: 17mph
Location:  47.1782°N, 121.641°W
Report Text: KRNT 230453Z AUTO 15007G15KT 10SM BKN110 14/12 A2963 RMK AO2 RAE00 SLP038 P0000 T01440117
Loading
Personal Weather Stations






























Interactive Weather Map
Tropical Storm Tracking
New forecast layout! Learn more

10-Day Weather Forecast

Advertisements
Track Severe Weather on mobile